Time;durP1;ratioP1;P1;durP2;ratioP2;P2;SDS_P1;SDS_P2;PMS_P1;PMS_P2;Temp;Humidity;BMP_temperature;BMP_pressure;BME280_temperature;BME280_humidity;BME280_pressure;Samples;Min_cycle;Max_cycle;Signal;HPM_P1;HPM_P2
2022/11/19 06:06:11;;;;;;;12.05;4.35;;;;;;;5.42;82.75;97338.75;6150503;23;20017;-63
2022/11/19 06:08:37;;;;;;;10.40;4.35;;;;;;;5.56;83.88;97354.34;6131917;23;20446;-63
2022/11/19 06:11:03;;;;;;;9.77;4.10;;;;;;;5.70;85.89;97363.88;6184636;23;20005;-62
2022/11/19 06:13:28;;;;;;;10.60;3.83;;;;;;;5.74;85.57;97365.34;6184043;23;20004;-63
2022/11/19 06:15:54;;;;;;;11.43;4.15;;;;;;;5.77;85.57;97364.34;6184626;23;20009;-63
2022/11/19 06:18:19;;;;;;;8.82;3.72;;;;;;;5.80;85.24;97383.19;6184498;23;20551;-62
2022/11/19 06:20:44;;;;;;;9.02;4.20;;;;;;;5.87;86.36;97387.09;6180581;23;20005;-63
2022/11/19 06:23:10;;;;;;;12.45;4.15;;;;;;;5.92;86.47;97385.09;6180740;23;20005;-62
2022/11/19 06:25:35;;;;;;;10.80;3.90;;;;;;;5.99;86.88;97382.94;6184169;23;20008;-62
2022/11/19 06:28:00;;;;;;;8.57;3.22;;;;;;;6.02;86.40;97379.28;6184146;23;19997;-63
2022/11/19 06:30:26;;;;;;;10.32;4.25;;;;;;;6.02;85.17;97381.88;6151057;23;20013;-62
2022/11/19 06:32:51;;;;;;;9.27;4.00;;;;;;;6.04;85.90;97386.06;6182629;23;20062;-62
2022/11/19 06:35:16;;;;;;;11.30;5.07;;;;;;;6.03;84.30;97383.56;6183209;23;20031;-62
2022/11/19 06:37:42;;;;;;;9.07;3.70;;;;;;;6.05;85.00;97384.28;6180621;23;20005;-62
2022/11/19 06:40:08;;;;;;;9.52;3.92;;;;;;;6.05;85.53;97385.13;6182945;23;20430;-63
2022/11/19 06:42:36;;;;;;;9.07;3.75;;;;;;;6.10;85.87;97387.47;6156220;23;20004;-63
2022/11/19 06:45:06;;;;;;;8.02;3.33;;;;;;;6.11;85.14;97391.72;6182757;23;20005;-62
2022/11/19 06:47:32;;;;;;;9.48;3.88;;;;;;;6.09;83.74;97388.38;6157389;23;20409;-62
2022/11/19 06:49:57;;;;;;;9.65;4.10;;;;;;;6.11;84.69;97395.16;6157133;23;20562;-62
2022/11/19 06:52:22;;;;;;;10.38;3.92;;;;;;;6.15;85.00;97411.41;6183610;23;20004;-62
2022/11/19 06:54:48;;;;;;;8.82;3.78;;;;;;;6.17;85.60;97409.56;6183448;23;20059;-62
2022/11/19 06:57:13;;;;;;;10.20;3.90;;;;;;;6.20;85.21;97408.53;6156518;23;20029;-62
2022/11/19 06:59:39;;;;;;;10.82;4.47;;;;;;;6.17;84.46;97409.56;6180005;23;20009;-62
2022/11/19 07:02:04;;;;;;;9.95;4.40;;;;;;;6.18;84.52;97411.22;6183382;23;20004;-61
2022/11/19 07:04:30;;;;;;;12.00;5.00;;;;;;;6.12;82.73;97415.03;6183367;23;20001;-61
2022/11/19 07:06:55;;;;;;;9.70;4.20;;;;;;;6.17;84.23;97418.22;6183251;23;20009;-62
2022/11/19 07:09:21;;;;;;;10.90;4.97;;;;;;;6.16;83.28;97420.91;6182443;23;20016;-63
2022/11/19 07:11:46;;;;;;;12.25;5.10;;;;;;;6.18;83.05;97427.69;6181985;23;20009;-62
2022/11/19 07:14:11;;;;;;;11.00;4.63;;;;;;;6.21;84.14;97428.44;6179059;23;20007;-62
2022/11/19 07:16:37;;;;;;;13.07;5.22;;;;;;;6.21;84.17;97437.06;6181145;23;20015;-62
2022/11/19 07:19:05;;;;;;;12.35;5.63;;;;;;;6.23;84.58;97439.56;6182291;23;20003;-64
2022/11/19 07:21:30;;;;;;;11.35;5.15;;;;;;;6.22;83.36;97446.56;6157185;23;20078;-61
2022/11/19 07:23:56;;;;;;;13.27;5.57;;;;;;;6.24;84.05;97455.13;6183426;23;20005;-61
2022/11/19 07:26:22;;;;;;;11.85;5.72;;;;;;;6.25;83.98;97451.56;6156738;23;20044;-62
2022/11/19 07:28:47;;;;;;;15.15;7.40;;;;;;;5.85;75.52;97451.44;6180263;23;20385;-64
2022/11/19 07:31:12;;;;;;;17.27;8.18;;;;;;;5.46;74.54;97457.25;6182550;23;20066;-65
2022/11/19 07:33:38;;;;;;;18.40;8.25;;;;;;;5.13;74.93;97466.16;6150560;23;19993;-64
2022/11/19 07:36:05;;;;;;;17.77;8.30;;;;;;;4.89;75.05;97464.97;6129424;23;20388;-64
2022/11/19 07:38:31;;;;;;;17.60;8.57;;;;;;;4.65;75.39;97473.22;6154817;23;20004;-67
2022/11/19 07:40:56;;;;;;;17.90;8.27;;;;;;;4.44;76.36;97462.28;6155965;23;20023;-66
2022/11/19 07:43:22;;;;;;;17.38;8.60;;;;;;;4.27;77.98;97462.38;6181205;23;20609;-66
2022/11/19 07:45:47;;;;;;;17.48;8.32;;;;;;;4.11;78.24;97466.72;6182781;23;20038;-65
2022/11/19 07:48:12;;;;;;;17.02;8.75;;;;;;;3.97;78.51;97459.69;6182664;23;20005;-65
2022/11/19 07:50:39;;;;;;;18.20;8.07;;;;;;;3.92;78.94;97461.66;6182518;23;20033;-66
2022/11/19 07:53:05;;;;;;;20.27;8.70;;;;;;;3.82;78.79;97466.53;6181319;23;20000;-66
2022/11/19 07:55:30;;;;;;;18.15;8.13;;;;;;;3.93;82.63;97466.78;6182195;23;20128;-66
2022/11/19 07:57:55;;;;;;;18.50;8.68;;;;;;;3.75;80.14;97460.84;6155376;23;20380;-66
2022/11/19 08:00:21;;;;;;;19.13;8.63;;;;;;;3.67;79.89;97462.97;6154609;23;19997;-66
2022/11/19 08:02:46;;;;;;;17.98;8.35;;;;;;;3.54;79.41;97462.81;6154902;23;19997;-65
2022/11/19 08:05:12;;;;;;;19.48;8.48;;;;;;;3.49;79.42;97459.59;6182297;23;20051;-66
2022/11/19 08:07:37;;;;;;;24.85;10.52;;;;;;;3.42;80.62;97460.84;6182148;23;20020;-65
2022/11/19 08:10:05;;;;;;;20.42;8.85;;;;;;;3.37;80.47;97462.81;6181727;23;20012;-66
2022/11/19 08:12:31;;;;;;;19.38;9.18;;;;;;;3.29;80.03;97470.16;6154895;23;20001;-65
2022/11/19 08:14:56;;;;;;;18.77;8.70;;;;;;;3.29;80.34;97470.16;6181850;23;20088;-64
2022/11/19 08:20:06;;;;;;;16.83;8.45;;;;;;;3.24;80.75;97474.75;6181980;23;20020;-65
2022/11/19 08:22:32;;;;;;;21.95;9.27;;;;;;;3.20;81.22;97478.38;6182413;23;20067;-65
2022/11/19 08:24:57;;;;;;;20.38;8.30;;;;;;;3.20;80.43;97474.06;6181245;23;20346;-66
2022/11/19 08:27:22;;;;;;;19.95;9.05;;;;;;;3.15;80.44;97483.81;6156990;23;20009;-66
2022/11/19 08:29:48;;;;;;;19.88;8.75;;;;;;;3.16;81.79;97482.88;6156409;23;20079;-66
2022/11/19 08:32:13;;;;;;;19.63;8.98;;;;;;;3.12;80.54;97490.91;6183046;23;20007;-66
2022/11/19 08:34:38;;;;;;;21.65;9.38;;;;;;;3.11;81.28;97492.66;6182346;23;20001;-65
2022/11/19 08:37:04;;;;;;;21.77;8.95;;;;;;;3.11;81.72;97499.59;6183008;23;20005;-65
2022/11/19 08:39:30;;;;;;;25.25;10.38;;;;;;;3.05;81.04;97493.78;6157363;23;20000;-65
2022/11/19 08:44:40;;;;;;;21.70;10.23;;;;;;;3.03;81.18;97503.41;6181712;23;20008;-65
2022/11/19 08:47:05;;;;;;;21.73;9.32;;;;;;;3.01;82.41;97505.22;6182034;23;20009;-65
2022/11/19 08:49:30;;;;;;;21.75;9.88;;;;;;;3.05;80.72;97511.91;6182523;23;20419;-65
2022/11/19 08:51:56;;;;;;;20.58;8.40;;;;;;;3.06;81.42;97505.84;6154604;23;20013;-65
2022/11/19 08:54:22;;;;;;;21.33;9.45;;;;;;;3.08;80.94;97506.59;6155508;23;20338;-65
2022/11/19 08:56:47;;;;;;;19.80;9.25;;;;;;;3.09;80.75;97508.25;6182121;23;20573;-66
2022/11/19 08:59:12;;;;;;;17.90;8.63;;;;;;;3.12;80.06;97519.41;6182048;23;20019;-65
2022/11/19 09:01:38;;;;;;;19.45;8.85;;;;;;;3.06;80.03;97523.13;6155854;23;20012;-65
2022/11/19 09:04:03;;;;;;;21.75;9.02;;;;;;;3.00;80.74;97520.84;6182612;23;19993;-66
2022/11/19 09:06:29;;;;;;;20.60;7.85;;;;;;;3.01;81.52;97519.94;6183937;23;20053;-66
2022/11/19 09:08:54;;;;;;;21.73;8.55;;;;;;;2.98;81.52;97514.91;6157648;23;20031;-66
2022/11/19 09:11:20;;;;;;;18.98;9.07;;;;;;;2.95;81.83;97521.06;6183969;23;20011;-66
2022/11/19 09:13:45;;;;;;;20.92;9.18;;;;;;;2.96;81.36;97516.72;6134024;23;19994;-66
2022/11/19 09:16:11;;;;;;;19.67;8.73;;;;;;;2.95;80.29;97525.41;6158942;23;20005;-65
2022/11/19 09:18:40;;;;;;;19.65;8.57;;;;;;;2.91;81.70;97529.91;6157996;23;20622;-66
2022/11/19 14:26:40;;;;;;;33.83;17.30;;;;;;;2.59;82.49;97503.78;6148694;23;20088;-64
2022/11/19 14:29:14;;;;;;;27.80;15.02;;;;;;;2.58;82.36;97507.31;6183017;23;20423;-66
2022/11/19 14:32:05;;;;;;;26.52;12.13;;;;;;;2.57;82.62;97505.59;6182679;23;20005;-64
2022/11/19 14:34:32;;;;;;;25.20;11.45;;;;;;;2.54;82.65;97505.75;6183217;23;20025;-66
2022/11/19 14:36:58;;;;;;;23.35;10.57;;;;;;;2.54;82.84;97516.09;6132782;23;20437;-66
2022/11/19 14:39:30;;;;;;;22.48;11.05;;;;;;;2.52;83.14;97507.59;6133075;23;20028;-65
2022/11/19 14:42:15;;;;;;;20.83;10.60;;;;;;;2.53;83.44;97514.44;6157093;23;20008;-64
2022/11/19 14:44:42;;;;;;;19.92;9.95;;;;;;;2.50;83.02;97506.81;6156591;23;20009;-65
2022/11/19 14:47:34;;;;;;;23.48;11.23;;;;;;;2.51;83.37;97512.81;6132566;23;20009;-65
2022/11/19 14:50:29;;;;;;;31.60;16.48;;;;;;;2.51;82.70;97511.09;6145760;23;20015;-64
2022/11/19 14:52:56;;;;;;;24.25;12.48;;;;;;;2.49;82.95;97512.91;6073982;23;20010;-64
2022/11/19 14:55:26;;;;;;;26.15;13.70;;;;;;;2.48;82.98;97516.41;6045237;23;20085;-64
2022/11/19 14:58:01;;;;;;;34.03;17.77;;;;;;;2.47;82.87;97519.91;6045346;23;20190;-64
2022/11/19 15:00:33;;;;;;;25.27;13.02;;;;;;;2.45;83.31;97520.91;6093163;23;20006;-64
2022/11/19 15:02:58;;;;;;;23.98;13.27;;;;;;;2.44;83.41;97517.44;6092180;23;20014;-64
2022/11/19 15:05:29;;;;;;;23.63;13.02;;;;;;;2.44;83.38;97520.03;6068952;23;20069;-65
2022/11/19 21:29:29;;;;;;;24.75;11.90;;;;;;;2.39;85.09;97615.19;6152760;23;20143;-63
2022/11/19 21:31:55;;;;;;;23.67;12.23;;;;;;;2.49;85.01;97637.16;6156147;23;20021;-64
2022/11/19 21:34:20;;;;;;;23.10;12.55;;;;;;;2.47;85.17;97632.97;6156303;23;20016;-64
2022/11/19 21:36:46;;;;;;;23.25;12.73;;;;;;;2.47;85.17;97630.38;6183761;23;20065;-64
2022/11/19 21:39:13;;;;;;;22.83;11.75;;;;;;;2.49;85.19;97625.97;6158638;23;20067;-64
2022/11/19 21:41:38;;;;;;;21.95;11.70;;;;;;;2.48;85.12;97627.72;6183997;23;20001;-63
2022/11/19 21:44:04;;;;;;;26.90;14.45;;;;;;;2.47;84.67;97625.19;6154635;23;20011;-62
2022/11/19 21:46:29;;;;;;;24.17;13.20;;;;;;;2.45;84.69;97632.22;6178851;23;20051;-63
2022/11/19 21:48:55;;;;;;;20.45;11.15;;;;;;;2.46;85.13;97632.13;6181581;23;20020;-63
2022/11/19 21:51:20;;;;;;;22.83;11.35;;;;;;;2.47;86.29;97633.78;6182358;23;20008;-63
2022/11/19 21:53:45;;;;;;;20.80;10.77;;;;;;;2.43;85.47;97608.97;6181845;23;19997;-63
2022/11/19 21:56:11;;;;;;;23.83;11.15;;;;;;;2.47;85.48;97622.59;6183705;23;20009;-63
2022/11/19 21:58:36;;;;;;;27.50;14.23;;;;;;;2.45;85.59;97629.63;6181925;23;20012;-63
2022/11/19 22:01:04;;;;;;;23.63;11.52;;;;;;;2.43;85.20;97616.72;6183516;23;20005;-62
2022/11/19 22:03:32;;;;;;;25.10;12.60;;;;;;;2.41;84.38;97618.56;6182907;23;20021;-63
2022/11/19 22:06:02;;;;;;;26.63;13.05;;;;;;;2.44;85.46;97613.22;6133310;23;20005;-62
2022/11/19 22:08:29;;;;;;;25.10;12.43;;;;;;;2.41;85.35;97618.56;6156680;23;20005;-63
2022/11/19 22:10:54;;;;;;;26.50;12.40;;;;;;;2.37;84.26;97627.34;6132787;23;20448;-63
